Time;durP1;ratioP1;P1;durP2;ratioP2;P2;SDS_P1;SDS_P2;PMS_P1;PMS_P2;Temp;Humidity;BMP_temperature;BMP_pressure;BME280_temperature;BME280_humidity;BME280_pressure;Samples;Min_cycle;Max_cycle;Signal;HPM_P1;HPM_P2
2022/09/13 00:00:41;;;;;;;11.65;4.30;;;19.90;99.90;;;;;;5030192;28;20180;-52
2022/09/13 00:03:11;;;;;;;8.50;4.00;;;19.80;99.90;;;;;;5030188;28;20276;-53
2022/09/13 00:05:38;;;;;;;9.13;3.95;;;19.80;99.90;;;;;;5030208;28;20185;-52
2022/09/13 00:08:05;;;;;;;7.25;3.83;;;19.80;99.90;;;;;;5029878;28;20683;-52
2022/09/13 00:10:33;;;;;;;7.22;3.70;;;19.70;99.90;;;;;;5029773;28;20182;-52
2022/09/13 00:13:00;;;;;;;6.75;3.67;;;19.70;99.90;;;;;;5030256;28;20228;-52
2022/09/13 00:15:26;;;;;;;7.80;3.60;;;19.70;99.90;;;;;;5030121;28;20787;-52
2022/09/13 00:17:51;;;;;;;5.75;3.50;;;19.60;99.90;;;;;;5033335;28;20264;-52
2022/09/13 00:20:17;;;;;;;9.15;3.63;;;19.60;99.90;;;;;;5033894;28;20239;-53
2022/09/13 00:22:43;;;;;;;7.43;3.90;;;19.60;99.90;;;;;;5033517;28;20226;-53
2022/09/13 00:25:09;;;;;;;10.05;3.80;;;19.50;99.90;;;;;;5033508;28;20631;-53
2022/09/13 00:27:35;;;;;;;6.35;3.78;;;19.50;99.90;;;;;;5033775;28;20177;-53
2022/09/13 00:30:03;;;;;;;10.65;5.90;;;19.40;99.90;;;;;;5033504;28;20172;-52
2022/09/13 00:32:29;;;;;;;7.03;4.32;;;19.40;99.90;;;;;;5033630;28;20289;-52
2022/09/13 00:34:55;;;;;;;10.00;4.75;;;19.40;99.90;;;;;;5033424;28;20190;-52
2022/09/13 00:37:20;;;;;;;9.38;4.60;;;19.30;99.90;;;;;;5032996;28;20251;-52
2022/09/13 00:39:46;;;;;;;10.82;4.75;;;19.20;99.90;;;;;;5033491;28;20186;-52
2022/09/13 00:42:13;;;;;;;8.43;4.85;;;19.20;99.90;;;;;;5033269;28;20279;-52
2022/09/13 00:45:22;;;;;;;7.97;4.95;;;19.20;99.90;;;;;;5033495;28;20296;-53
2022/09/13 00:47:52;;;;;;;9.52;4.93;;;19.10;99.90;;;;;;5032216;28;20200;-53
2022/09/13 00:50:31;;;;;;;6.78;5.32;;;19.00;99.90;;;;;;5033319;28;20170;-53
2022/09/13 00:53:10;;;;;;;8.93;5.40;;;19.00;99.90;;;;;;5031624;28;20190;-53
2022/09/13 00:55:35;;;;;;;8.13;5.63;;;18.90;99.90;;;;;;5033189;28;20189;-53
2022/09/13 00:58:05;;;;;;;11.27;6.50;;;18.80;99.90;;;;;;5032977;28;20174;-53
2022/09/13 01:00:31;;;;;;;9.52;7.07;;;18.80;99.90;;;;;;5033404;28;20637;-53
2022/09/13 01:03:01;;;;;;;12.85;6.85;;;18.70;99.90;;;;;;5032910;28;20174;-53
2022/09/13 01:05:32;;;;;;;12.40;7.68;;;18.70;99.90;;;;;;5033388;28;20194;-53
2022/09/13 01:07:59;;;;;;;15.80;8.30;;;18.60;99.90;;;;;;5030695;28;20182;-53
2022/09/13 01:10:26;;;;;;;12.77;8.68;;;18.60;99.90;;;;;;5014262;28;20193;-53
2022/09/13 01:13:13;;;;;;;14.23;9.60;;;18.60;99.90;;;;;;5031787;28;20248;-53
2022/09/13 01:15:40;;;;;;;12.68;9.43;;;18.50;99.90;;;;;;5032944;28;20261;-53
2022/09/13 01:18:07;;;;;;;14.02;10.32;;;18.40;99.90;;;;;;5032571;28;20289;-53
2022/09/13 01:21:12;;;;;;;14.07;10.70;;;18.40;99.90;;;;;;5032851;28;20545;-53
2022/09/13 01:23:52;;;;;;;15.82;10.57;;;18.30;99.90;;;;;;5008138;28;20181;-53
2022/09/13 01:26:36;;;;;;;29.17;11.40;;;18.30;99.90;;;;;;5032632;28;20169;-53
2022/09/13 01:29:20;;;;;;;18.77;11.38;;;18.20;99.90;;;;;;5032159;28;20720;-53
2022/09/13 01:32:05;;;;;;;19.98;12.40;;;18.20;99.90;;;;;;5032418;28;20217;-53
2022/09/13 01:35:03;;;;;;;19.50;12.40;;;18.10;99.90;;;;;;5032458;28;20188;-52
2022/09/13 01:37:41;;;;;;;24.42;14.43;;;18.10;99.90;;;;;;5024384;28;20174;-52
2022/09/13 01:40:44;;;;;;;20.40;13.35;;;18.00;99.90;;;;;;5032310;28;20649;-53
2022/09/13 01:43:23;;;;;;;22.02;14.35;;;18.00;99.90;;;;;;5032599;28;20296;-53
2022/09/13 01:46:17;;;;;;;19.63;13.27;;;18.00;99.90;;;;;;5032350;28;20201;-52
2022/09/13 01:49:14;;;;;;;17.45;12.30;;;17.90;99.90;;;;;;5032165;28;20660;-52
2022/09/13 01:51:53;;;;;;;16.50;10.68;;;17.80;99.90;;;;;;5015524;28;20270;-52
2022/09/13 01:54:21;;;;;;;13.70;9.60;;;17.80;99.90;;;;;;5032184;28;20181;-52
2022/09/13 01:57:00;;;;;;;14.52;9.60;;;17.70;99.90;;;;;;5032220;28;20173;-53
2022/09/13 01:59:28;;;;;;;12.95;8.73;;;17.80;99.90;;;;;;5016462;28;20166;-53
2022/09/13 02:02:01;;;;;;;11.35;8.35;;;17.70;99.90;;;;;;5031887;28;20290;-54
2022/09/13 02:04:35;;;;;;;12.48;7.95;;;17.70;99.90;;;;;;5031689;28;20583;-54
2022/09/13 02:07:03;;;;;;;10.88;7.47;;;17.60;99.90;;;;;;5031653;28;20174;-54
2022/09/13 02:09:36;;;;;;;11.88;7.10;;;17.60;99.90;;;;;;5031562;28;20174;-54
2022/09/13 02:12:12;;;;;;;11.18;6.70;;;17.70;99.90;;;;;;5031285;28;20210;-54
2022/09/13 02:14:40;;;;;;;9.90;7.07;;;17.70;99.90;;;;;;5018017;28;20180;-54
2022/09/13 02:17:14;;;;;;;8.35;6.38;;;17.60;99.90;;;;;;5031312;28;20186;-54
2022/09/13 02:19:48;;;;;;;7.68;5.75;;;17.60;99.90;;;;;;5031688;28;20178;-54
2022/09/13 02:22:19;;;;;;;8.82;6.32;;;17.50;99.90;;;;;;5031094;28;20667;-54
2022/09/13 02:24:50;;;;;;;10.52;6.00;;;17.60;99.90;;;;;;5031319;28;20204;-54
2022/09/13 02:27:23;;;;;;;9.32;5.93;;;17.50;99.90;;;;;;5031441;28;20190;-55
2022/09/13 02:29:54;;;;;;;7.97;5.97;;;17.50;99.90;;;;;;5031423;28;20178;-54
2022/09/13 02:32:19;;;;;;;11.95;6.35;;;17.50;99.90;;;;;;5031165;28;20240;-54
2022/09/13 02:34:55;;;;;;;11.90;5.72;;;17.40;99.90;;;;;;5031149;28;20640;-53
2022/09/13 02:37:24;;;;;;;9.63;6.47;;;17.30;99.90;;;;;;5025749;28;20181;-54
2022/09/13 02:39:56;;;;;;;11.55;6.63;;;17.40;99.90;;;;;;5030658;28;20170;-53
2022/09/13 02:42:37;;;;;;;15.52;7.20;;;17.20;99.90;;;;;;5031394;28;20330;-53
2022/09/13 02:45:04;;;;;;;17.45;6.97;;;17.20;99.90;;;;;;5029741;28;20181;-53
2022/09/13 02:47:49;;;;;;;10.75;7.13;;;17.20;99.90;;;;;;5031082;28;20181;-53
2022/09/13 02:50:29;;;;;;;12.38;6.88;;;17.20;99.90;;;;;;5029825;28;20177;-51
2022/09/13 02:53:10;;;;;;;13.63;7.25;;;17.10;99.90;;;;;;5030857;28;20221;-51
2022/09/13 02:56:18;;;;;;;15.95;7.38;;;17.00;99.90;;;;;;5030928;28;20183;-52
2022/09/13 02:58:49;;;;;;;15.15;7.32;;;17.00;99.90;;;;;;5030886;28;20186;-52
2022/09/13 03:01:15;;;;;;;12.82;6.78;;;17.20;99.90;;;;;;5030845;28;20184;-52
2022/09/13 03:03:40;;;;;;;17.23;6.68;;;16.90;99.90;;;;;;5031140;28;20174;-52
2022/09/13 03:06:06;;;;;;;15.15;7.10;;;16.90;99.90;;;;;;5030827;28;20696;-52
2022/09/13 03:08:33;;;;;;;16.85;6.47;;;16.90;99.90;;;;;;5030634;28;20185;-52
2022/09/13 03:11:24;;;;;;;10.52;6.30;;;16.90;99.90;;;;;;5030558;28;20621;-52
2022/09/13 03:13:49;;;;;;;18.90;6.90;;;16.90;99.90;;;;;;5030783;28;20244;-52
2022/09/13 03:16:33;;;;;;;17.02;7.13;;;16.90;99.90;;;;;;5030470;28;20581;-52
2022/09/13 03:19:32;;;;;;;15.90;6.97;;;16.70;99.90;;;;;;5030795;28;20235;-52
2022/09/13 03:22:01;;;;;;;14.73;7.25;;;16.80;99.90;;;;;;5030096;28;20301;-52
2022/09/13 03:24:51;;;;;;;13.57;6.68;;;16.90;99.90;;;;;;5029657;28;20259;-52
2022/09/13 03:27:28;;;;;;;14.23;6.97;;;16.80;99.90;;;;;;5030816;28;20579;-52
2022/09/13 03:29:54;;;;;;;12.43;7.15;;;16.80;99.90;;;;;;5030594;28;20173;-52
2022/09/13 03:32:28;;;;;;;14.95;7.40;;;16.80;99.90;;;;;;5030029;28;20216;-52
2022/09/13 03:35:10;;;;;;;12.07;6.82;;;16.90;99.90;;;;;;5030636;28;20188;-52
2022/09/13 03:37:53;;;;;;;10.48;7.63;;;16.90;99.90;;;;;;5030102;28;20184;-52
2022/09/13 03:40:32;;;;;;;16.92;7.20;;;16.70;99.90;;;;;;5029697;28;20182;-52
2022/09/13 03:43:26;;;;;;;19.40;7.72;;;16.80;99.90;;;;;;5028472;28;20198;-52
2022/09/13 03:45:56;;;;;;;17.85;7.63;;;16.80;99.90;;;;;;5027046;28;20181;-52
2022/09/13 03:48:22;;;;;;;14.50;7.57;;;16.80;99.90;;;;;;5030544;28;20663;-52
2022/09/13 03:50:49;;;;;;;12.75;6.78;;;16.80;99.90;;;;;;5032101;28;20178;-52
2022/09/13 03:53:21;;;;;;;14.25;6.93;;;16.80;99.90;;;;;;5033086;28;20704;-52
2022/09/13 03:55:47;;;;;;;14.43;6.68;;;16.80;99.90;;;;;;5034332;28;20178;-52
2022/09/13 03:58:16;;;;;;;16.23;6.18;;;16.80;99.90;;;;;;5034666;28;20170;-52
2022/09/13 04:00:42;;;;;;;15.25;6.75;;;16.70;99.90;;;;;;5034133;28;20184;-52
2022/09/13 04:03:08;;;;;;;10.50;6.13;;;16.70;99.90;;;;;;5034222;28;20189;-52
2022/09/13 04:05:34;;;;;;;13.05;6.05;;;16.70;99.90;;;;;;5034090;28;20178;-52
2022/09/13 04:08:01;;;;;;;16.08;6.40;;;16.70;99.90;;;;;;5034050;28;20236;-52
2022/09/13 04:10:30;;;;;;;12.50;5.90;;;16.60;99.90;;;;;;5033826;28;20178;-52
2022/09/13 04:12:56;;;;;;;11.82;6.10;;;16.60;99.90;;;;;;5034017;28;20222;-52
2022/09/13 04:15:23;;;;;;;11.45;6.10;;;16.50;99.90;;;;;;5032635;28;20182;-51
2022/09/13 04:17:49;;;;;;;16.13;6.05;;;16.60;99.90;;;;;;5034038;28;20174;-52
2022/09/13 04:20:15;;;;;;;14.77;5.32;;;16.50;99.90;;;;;;5033973;28;20184;-52
2022/09/13 04:22:41;;;;;;;12.38;6.47;;;16.50;99.90;;;;;;5033376;28;20177;-52
2022/09/13 04:25:07;;;;;;;13.38;5.82;;;16.50;99.90;;;;;;5033765;28;20182;-52
2022/09/13 04:27:34;;;;;;;17.58;6.53;;;16.50;99.90;;;;;;5033537;28;20182;-52
2022/09/13 04:30:01;;;;;;;16.65;5.68;;;16.50;99.90;;;;;;5032248;28;20178;-52
2022/09/13 04:32:27;;;;;;;11.05;5.40;;;16.50;99.90;;;;;;5033216;28;20300;-52
2022/09/13 04:34:53;;;;;;;13.65;4.85;;;16.50;99.90;;;;;;5033017;28;20193;-52
2022/09/13 04:37:19;;;;;;;15.77;5.80;;;16.50;99.90;;;;;;5033373;28;20178;-52
2022/09/13 04:39:45;;;;;;;8.43;4.95;;;16.60;99.90;;;;;;5033465;28;20245;-51
2022/09/13 04:42:11;;;;;;;14.38;4.75;;;16.50;99.90;;;;;;5033163;28;20304;-51
2022/09/13 04:44:37;;;;;;;10.00;3.97;;;16.50;99.90;;;;;;5033258;28;20224;-52
2022/09/13 04:47:03;;;;;;;12.55;4.22;;;16.80;99.90;;;;;;5033442;28;20632;-52
2022/09/13 04:49:29;;;;;;;10.38;3.92;;;16.50;99.90;;;;;;5033279;28;20699;-52
2022/09/13 04:51:55;;;;;;;10.75;3.13;;;;;;;;;;5032160;28;20355;-52
2022/09/13 04:54:21;;;;;;;12.32;3.28;;;16.50;99.90;;;;;;5033162;28;20170;-52
2022/09/13 04:56:47;;;;;;;10.88;3.08;;;16.50;99.90;;;;;;5033409;28;20657;-52
2022/09/13 04:59:14;;;;;;;10.05;2.70;;;16.50;99.90;;;;;;5033068;28;20173;-52
2022/09/13 05:01:40;;;;;;;9.00;2.70;;;16.50;99.90;;;;;;5032284;28;20244;-51
2022/09/13 05:04:06;;;;;;;12.40;2.90;;;16.50;99.90;;;;;;5033145;28;20173;-52
2022/09/13 05:06:32;;;;;;;8.65;2.85;;;16.50;99.90;;;;;;5033097;28;20263;-52
2022/09/13 05:08:58;;;;;;;11.30;2.80;;;16.40;99.90;;;;;;5033095;28;20706;-52
2022/09/13 05:11:25;;;;;;;8.10;2.42;;;16.40;99.90;;;;;;5033021;28;20190;-52
2022/09/13 05:13:54;;;;;;;13.85;2.70;;;16.40;99.90;;;;;;5032704;28;20211;-52
2022/09/13 05:16:24;;;;;;;13.18;2.58;;;16.30;99.90;;;;;;5030356;28;20178;-52
2022/09/13 05:18:50;;;;;;;7.90;2.58;;;16.00;99.90;;;;;;5033143;28;20911;-52
2022/09/13 05:21:16;;;;;;;11.10;3.50;;;16.30;99.90;;;;;;5032546;28;20273;-52
2022/09/13 05:23:42;;;;;;;5.30;2.20;;;16.30;99.90;;;;;;5032547;28;20220;-52
2022/09/13 05:26:08;;;;;;;10.75;2.05;;;16.30;99.90;;;;;;5032750;28;20205;-52
2022/09/13 05:28:35;;;;;;;8.05;2.13;;;16.30;99.90;;;;;;5032515;28;20177;-52
2022/09/13 05:31:03;;;;;;;9.73;2.20;;;16.30;99.90;;;;;;5032367;28;20220;-52
2022/09/13 05:33:31;;;;;;;8.07;1.90;;;16.10;99.90;;;;;;5032374;28;20247;-52
2022/09/13 05:35:57;;;;;;;10.18;1.90;;;16.30;99.90;;;;;;5032558;28;20209;-52
2022/09/13 05:38:23;;;;;;;11.88;2.20;;;16.20;99.90;;;;;;5032531;28;20209;-52
2022/09/13 05:41:03;;;;;;;9.65;2.05;;;16.30;99.90;;;;;;5031878;28;20634;-52
2022/09/13 05:43:31;;;;;;;8.27;2.22;;;16.30;99.90;;;;;;5012865;28;20181;-52
2022/09/13 05:46:15;;;;;;;7.82;2.00;;;16.20;99.90;;;;;;5032016;28;20170;-52
2022/09/13 05:48:41;;;;;;;9.85;1.98;;;16.20;99.90;;;;;;5029585;28;20233;-52
2022/09/13 05:51:11;;;;;;;9.85;2.40;;;16.20;99.90;;;;;;5025565;28;20202;-51
2022/09/13 05:53:40;;;;;;;7.65;2.40;;;16.20;99.90;;;;;;5013742;28;20206;-52
2022/09/13 05:56:08;;;;;;;11.35;2.42;;;16.20;99.90;;;;;;5028852;28;20185;-52
2022/09/13 05:58:37;;;;;;;11.50;2.17;;;16.30;99.90;;;;;;5031991;28;20166;-53
2022/09/13 06:01:03;;;;;;;10.40;2.50;;;16.20;99.90;;;;;;5031802;28;20173;-53
2022/09/13 06:03:29;;;;;;;8.73;1.95;;;16.20;99.90;;;;;;5031862;28;20554;-53
2022/09/13 06:05:56;;;;;;;7.72;2.00;;;16.20;99.90;;;;;;5031635;28;20197;-52
2022/09/13 06:08:23;;;;;;;9.10;2.35;;;16.30;99.90;;;;;;5030393;28;20174;-52
2022/09/13 06:10:56;;;;;;;11.73;1.90;;;16.30;99.90;;;;;;5032019;28;20178;-52
2022/09/13 06:13:22;;;;;;;7.82;2.05;;;16.20;99.90;;;;;;5031625;28;20178;-51
2022/09/13 06:15:48;;;;;;;14.18;2.05;;;16.20;99.90;;;;;;5029860;28;20726;-52
2022/09/13 06:18:13;;;;;;;14.18;2.00;;;16.20;99.90;;;;;;5031629;28;20296;-51
2022/09/13 06:20:39;;;;;;;9.77;2.22;;;16.20;99.90;;;;;;5031454;28;20178;-51
2022/09/13 06:23:05;;;;;;;4.90;1.83;;;16.20;99.90;;;;;;5031145;28;20186;-51
2022/09/13 06:25:31;;;;;;;12.48;2.15;;;;;;;;;;5031615;28;20263;-57
2022/09/13 06:27:57;;;;;;;9.30;2.05;;;16.20;99.90;;;;;;5031698;28;20178;-51
2022/09/13 06:30:22;;;;;;;9.25;1.92;;;16.20;99.90;;;;;;5031144;28;20192;-52
2022/09/13 06:32:48;;;;;;;17.02;1.85;;;16.20;99.90;;;;;;5030030;28;20209;-52
2022/09/13 06:35:15;;;;;;;11.73;2.45;;;16.20;99.90;;;;;;5030832;28;20174;-52
2022/09/13 06:37:40;;;;;;;10.27;1.83;;;16.20;99.90;;;;;;5030779;28;20182;-52
2022/09/13 06:40:06;;;;;;;6.15;1.90;;;16.20;99.90;;;;;;5030544;28;20520;-52
2022/09/13 06:42:35;;;;;;;10.80;1.85;;;16.20;99.90;;;;;;5030809;28;20218;-48
2022/09/13 06:45:02;;;;;;;7.32;2.05;;;16.20;99.90;;;;;;5029888;28;20281;-51
2022/09/13 06:47:28;;;;;;;10.07;1.83;;;16.20;99.90;;;;;;5031184;28;20182;-51
2022/09/13 06:49:53;;;;;;;8.50;1.73;;;16.30;99.90;;;;;;5031192;28;20181;-52
2022/09/13 06:52:19;;;;;;;10.15;2.08;;;16.30;99.90;;;;;;5030737;28;20523;-53
2022/09/13 06:54:45;;;;;;;17.83;2.10;;;16.30;99.90;;;;;;5023236;28;20227;-52
2022/09/13 06:57:10;;;;;;;15.73;2.25;;;16.30;99.90;;;;;;5029843;28;20221;-56
2022/09/13 06:59:36;;;;;;;11.00;2.55;;;16.30;99.90;;;;;;5030426;28;20178;-54
2022/09/13 07:02:02;;;;;;;13.43;2.10;;;16.20;99.90;;;;;;5031096;28;20186;-54
2022/09/13 07:04:30;;;;;;;18.17;2.28;;;16.30;99.90;;;;;;5031064;28;20533;-54
2022/09/13 07:06:57;;;;;;;10.88;2.60;;;16.20;99.90;;;;;;5030183;28;20174;-54
2022/09/13 07:09:23;;;;;;;6.43;2.25;;;16.20;99.90;;;;;;5030874;28;20532;-54
2022/09/13 07:11:51;;;;;;;10.32;2.00;;;16.20;99.90;;;;;;5030875;28;20652;-55
2022/09/13 07:14:19;;;;;;;13.02;1.67;;;16.30;99.90;;;;;;5030915;28;20238;-56
2022/09/13 07:16:45;;;;;;;9.93;1.70;;;16.20;99.90;;;;;;5031227;28;20646;-53
2022/09/13 07:19:14;;;;;;;17.30;1.92;;;16.30;99.90;;;;;;5044540;28;20201;-59
2022/09/13 07:21:40;;;;;;;11.27;1.48;;;16.30;99.90;;;;;;5028389;28;20235;-55
2022/09/13 07:24:06;;;;;;;17.42;2.45;;;16.50;99.90;;;;;;5030588;28;20170;-55
2022/09/13 07:26:33;;;;;;;19.33;1.83;;;16.30;99.90;;;;;;5030527;28;20166;-54
2022/09/13 07:29:01;;;;;;;8.23;1.55;;;16.40;99.90;;;;;;5030776;28;20170;-55
2022/09/13 07:31:33;;;;;;;9.88;1.55;;;16.40;99.90;;;;;;5030743;28;20256;-55
2022/09/13 07:34:02;;;;;;;12.45;1.55;;;16.40;99.90;;;;;;5030782;28;20170;-55
2022/09/13 07:36:29;;;;;;;9.52;1.63;;;16.40;99.90;;;;;;5030090;28;20621;-55
2022/09/13 07:38:56;;;;;;;12.20;1.52;;;16.50;99.90;;;;;;5030639;28;20181;-55
2022/09/13 07:41:23;;;;;;;12.70;1.67;;;16.50;99.90;;;;;;5030304;28;20868;-54
2022/09/13 07:43:50;;;;;;;11.05;1.75;;;16.50;99.90;;;;;;5028833;28;20219;-60
2022/09/13 07:46:21;;;;;;;11.95;1.77;;;16.50;99.90;;;;;;5030235;28;20182;-54
2022/09/13 07:48:48;;;;;;;13.63;1.85;;;16.60;99.90;;;;;;5030165;28;20166;-54
2022/09/13 07:51:15;;;;;;;15.20;1.60;;;16.70;99.90;;;;;;5010704;28;20206;-54
2022/09/13 07:53:42;;;;;;;10.13;2.08;;;16.60;99.90;;;;;;5010811;28;20553;-54
2022/09/13 07:56:19;;;;;;;8.27;1.65;;;16.50;99.90;;;;;;5024169;28;20340;-55
2022/09/13 07:58:49;;;;;;;17.13;2.05;;;16.50;99.90;;;;;;5025486;28;20181;-54
2022/09/13 08:01:23;;;;;;;21.75;1.80;;;16.50;99.90;;;;;;5026776;28;20177;-53
2022/09/13 08:03:57;;;;;;;8.55;1.88;;;16.50;99.90;;;;;;5030535;28;20755;-54
2022/09/13 08:06:24;;;;;;;12.70;1.63;;;16.60;99.90;;;;;;5010761;28;20707;-54
2022/09/13 08:08:50;;;;;;;15.45;1.73;;;16.70;99.90;;;;;;5026083;28;20175;-54
2022/09/13 08:11:24;;;;;;;6.65;1.20;;;16.60;99.90;;;;;;5031306;28;20798;-53
2022/09/13 08:13:51;;;;;;;7.35;1.13;;;16.60;99.90;;;;;;5030411;28;20217;-52
2022/09/13 08:16:19;;;;;;;6.88;1.48;;;16.60;99.90;;;;;;5034815;28;20184;-53
2022/09/13 08:18:53;;;;;;;12.38;1.55;;;16.70;99.90;;;;;;5030792;28;20170;-52
2022/09/13 08:21:20;;;;;;;10.68;1.88;;;16.80;99.90;;;;;;5030327;28;20174;-53
2022/09/13 08:23:45;;;;;;;7.05;1.00;;;16.70;99.90;;;;;;5030335;28;20209;-52
2022/09/13 08:26:12;;;;;;;6.72;1.60;;;16.80;99.90;;;;;;5030014;28;20582;-52
2022/09/13 08:28:39;;;;;;;11.65;1.30;;;16.80;99.90;;;;;;5029928;28;20170;-52
2022/09/13 08:31:07;;;;;;;6.55;1.40;;;16.90;99.90;;;;;;5029218;28;20177;-50
2022/09/13 08:33:33;;;;;;;7.30;1.33;;;16.80;99.90;;;;;;5028011;28;20202;-51
2022/09/13 08:35:59;;;;;;;15.07;2.20;;;17.10;99.90;;;;;;5029924;28;20708;-51
2022/09/13 08:38:25;;;;;;;9.32;1.42;;;17.20;99.90;;;;;;5031266;28;20578;-51
2022/09/13 08:41:14;;;;;;;12.70;1.52;;;17.20;99.90;;;;;;5033377;28;20241;-52
2022/09/13 08:43:52;;;;;;;8.95;1.40;;;17.20;99.90;;;;;;5032483;28;20201;-52
2022/09/13 08:46:28;;;;;;;10.50;1.70;;;17.30;99.90;;;;;;5032999;28;20182;-53
2022/09/13 08:49:03;;;;;;;12.27;1.58;;;17.40;99.90;;;;;;5032653;28;20166;-52
2022/09/13 08:51:32;;;;;;;12.38;1.92;;;17.50;99.90;;;;;;5033591;28;20216;-52
2022/09/13 08:53:59;;;;;;;10.32;1.65;;;17.60;99.90;;;;;;5033253;28;20668;-52
2022/09/13 08:56:45;;;;;;;10.02;1.77;;;17.60;99.90;;;;;;5033232;28;20242;-52
2022/09/13 08:59:16;;;;;;;7.97;1.60;;;17.60;99.90;;;;;;5033280;28;20601;-52
2022/09/13 09:01:52;;;;;;;14.07;1.50;;;17.60;99.90;;;;;;5033273;28;20648;-52
2022/09/13 09:04:32;;;;;;;6.55;1.38;;;17.60;99.90;;;;;;5033189;28;20272;-52
2022/09/13 09:07:17;;;;;;;14.18;2.58;;;17.70;99.90;;;;;;5033152;28;20656;-52
2022/09/13 09:09:56;;;;;;;8.45;1.40;;;17.80;99.90;;;;;;5032805;28;20216;-52
2022/09/13 09:12:43;;;;;;;12.02;1.40;;;17.90;99.90;;;;;;5032858;28;20300;-52
2022/09/13 09:15:25;;;;;;;10.18;1.67;;;17.80;99.90;;;;;;5032967;28;20228;-52
2022/09/13 09:17:59;;;;;;;11.43;1.65;;;17.80;99.90;;;;;;5032951;28;20216;-52
2022/09/13 09:20:47;;;;;;;9.00;1.20;;;16.50;99.90;;;;;;5033139;28;20269;-52
2022/09/13 09:23:17;;;;;;;7.00;1.50;;;17.90;99.90;;;;;;5033076;28;20184;-52
2022/09/13 09:25:42;;;;;;;5.00;1.10;;;18.00;99.90;;;;;;5032331;28;20204;-52
2022/09/13 09:28:13;;;;;;;7.95;1.27;;;18.00;99.90;;;;;;5032323;28;20595;-52
2022/09/13 09:31:03;;;;;;;9.32;1.52;;;17.80;99.90;;;;;;5032593;28;20232;-52
2022/09/13 09:33:59;;;;;;;7.38;1.65;;;17.90;99.90;;;;;;5031474;28;20197;-52
2022/09/13 09:36:38;;;;;;;8.15;1.67;;;18.10;99.90;;;;;;5012883;28;20182;-52
2022/09/13 09:39:05;;;;;;;7.35;1.50;;;18.00;99.90;;;;;;5028611;28;20659;-52
2022/09/13 09:41:33;;;;;;;13.48;1.58;;;18.10;99.90;;;;;;5031979;28;20734;-52
2022/09/13 09:44:08;;;;;;;5.18;1.13;;;18.10;99.90;;;;;;5032650;28;20676;-52
2022/09/13 09:46:37;;;;;;;9.52;1.70;;;18.10;99.90;;;;;;5031641;28;20184;-52
2022/09/13 09:52:18;;;;;;;6.07;1.00;;;17.80;99.90;;;;;;5029314;28;20271;-52
2022/09/13 09:54:45;;;;;;;6.10;1.05;;;18.00;99.90;;;;;;5031842;28;20166;-52
2022/09/13 09:57:12;;;;;;;7.80;1.58;;;18.10;99.90;;;;;;5032256;28;20192;-53
2022/09/13 09:59:38;;;;;;;10.20;1.58;;;18.10;99.90;;;;;;5019909;28;20208;-52
2022/09/13 10:02:20;;;;;;;8.40;1.45;;;18.20;99.90;;;;;;5012456;28;20256;-52
2022/09/13 10:04:58;;;;;;;10.02;1.80;;;18.10;99.90;;;;;;5014411;28;20200;-52
2022/09/13 10:07:32;;;;;;;8.02;1.17;;;18.10;99.90;;;;;;5031764;28;20535;-52
2022/09/13 10:09:57;;;;;;;6.40;1.10;;;18.20;99.90;;;;;;5031263;28;20193;-52
2022/09/13 10:12:28;;;;;;;3.60;1.27;;;18.20;99.90;;;;;;5029204;28;20202;-54
2022/09/13 10:15:06;;;;;;;6.72;1.17;;;18.20;99.90;;;;;;5028116;28;20461;-51
2022/09/13 10:17:31;;;;;;;5.03;1.30;;;18.20;99.90;;;;;;5029521;28;20162;-51
2022/09/13 10:20:18;;;;;;;10.63;1.58;;;18.00;99.90;;;;;;5029945;28;20544;-52
2022/09/13 10:23:04;;;;;;;8.55;1.55;;;18.20;99.90;;;;;;5027959;28;20176;-51
2022/09/13 10:25:30;;;;;;;9.65;1.50;;;18.20;99.90;;;;;;5030794;28;20174;-52
2022/09/13 10:27:59;;;;;;;5.75;1.25;;;18.30;99.90;;;;;;5031466;28;20170;-52
2022/09/13 10:30:52;;;;;;;5.28;1.30;;;18.20;99.90;;;;;;5031737;28;20162;-52
2022/09/13 10:33:26;;;;;;;8.82;1.40;;;18.20;99.90;;;;;;5031561;28;20186;-52
2022/09/13 10:35:56;;;;;;;8.48;1.08;;;18.20;99.90;;;;;;5031680;28;20181;-53
2022/09/13 10:38:48;;;;;;;9.48;4.40;;;18.20;99.90;;;;;;5031323;28;20177;-53
2022/09/13 10:41:23;;;;;;;6.28;1.40;;;18.20;99.90;;;;;;5019878;28;20214;-52
2022/09/13 10:43:59;;;;;;;10.88;1.30;;;18.10;99.90;;;;;;5031371;28;20213;-53
2022/09/13 10:46:28;;;;;;;5.20;1.50;;;18.20;99.90;;;;;;5031418;28;20169;-52
2022/09/13 10:48:56;;;;;;;5.80;1.40;;;18.20;99.90;;;;;;5030975;28;20180;-53
2022/09/13 10:51:24;;;;;;;12.30;1.75;;;18.10;99.90;;;;;;5031784;28;20734;-53
2022/09/13 10:53:51;;;;;;;9.07;1.42;;;18.10;99.90;;;;;;5031188;28;20253;-52
2022/09/13 10:56:26;;;;;;;7.97;1.20;;;18.10;99.90;;;;;;5031275;28;20206;-55
2022/09/13 10:59:28;;;;;;;5.95;1.17;;;18.10;99.90;;;;;;5030977;28;20174;-53
2022/09/13 11:02:18;;;;;;;8.60;1.40;;;18.00;99.90;;;;;;5029710;28;20180;-53
2022/09/13 11:05:17;;;;;;;10.07;1.63;;;18.10;99.90;;;;;;5029663;28;20204;-53
2022/09/13 11:08:04;;;;;;;13.85;1.70;;;18.00;99.90;;;;;;5030927;28;20459;-54
2022/09/13 11:10:37;;;;;;;6.45;1.50;;;18.00;99.90;;;;;;5030903;28;20178;-53
2022/09/13 11:13:30;;;;;;;9.27;1.60;;;17.90;99.90;;;;;;5030910;28;20216;-53
2022/09/13 11:16:28;;;;;;;8.43;1.38;;;17.70;99.90;;;;;;5030897;28;20660;-52
2022/09/13 11:19:11;;;;;;;10.45;1.30;;;17.70;99.90;;;;;;5030609;28;20177;-53
2022/09/13 11:21:46;;;;;;;6.80;1.70;;;17.80;99.90;;;;;;5030821;28;20178;-53
2022/09/13 11:24:17;;;;;;;7.18;1.60;;;17.80;99.90;;;;;;5030552;28;20519;-53
2022/09/13 11:27:26;;;;;;;7.45;1.73;;;17.80;99.90;;;;;;5029578;28;20733;-53
2022/09/13 11:30:09;;;;;;;6.63;1.75;;;17.90;99.90;;;;;;5011176;28;20181;-52
2022/09/13 11:33:11;;;;;;;8.88;1.85;;;17.90;99.90;;;;;;5030784;28;20592;-53
2022/09/13 11:36:34;;;;;;;9.40;1.52;;;18.10;99.90;;;;;;5030408;28;20162;-53
2022/09/13 11:39:18;;;;;;;9.43;1.85;;;18.10;99.90;;;;;;4996914;28;20193;-53
2022/09/13 11:42:06;;;;;;;10.70;2.10;;;18.10;99.90;;;;;;5029556;28;20219;-53
2022/09/13 11:44:40;;;;;;;10.93;2.10;;;18.20;99.90;;;;;;5036919;28;20320;-53
2022/09/13 11:47:33;;;;;;;8.90;1.50;;;18.30;99.90;;;;;;5030504;28;20169;-53
2022/09/13 11:50:15;;;;;;;9.95;1.73;;;18.30;99.90;;;;;;5030297;28;20174;-53
2022/09/13 11:52:51;;;;;;;8.65;1.80;;;18.30;99.90;;;;;;5029381;28;20581;-53
2022/09/13 11:55:25;;;;;;;11.75;2.15;;;18.30;99.90;;;;;;5030144;28;20234;-53
2022/09/13 11:58:12;;;;;;;6.53;1.42;;;18.30;99.90;;;;;;5029746;28;20265;-53
2022/09/13 12:00:50;;;;;;;7.70;1.50;;;18.30;99.90;;;;;;5021215;28;20173;-53
2022/09/13 12:03:42;;;;;;;9.80;1.73;;;18.30;99.90;;;;;;5037153;28;20185;-52
2022/09/13 12:06:34;;;;;;;7.95;2.17;;;18.30;99.90;;;;;;5008003;28;20210;-52
2022/09/13 12:09:14;;;;;;;10.20;1.88;;;18.20;99.90;;;;;;5021909;28;20248;-54
2022/09/13 12:11:47;;;;;;;7.82;1.80;;;17.10;99.90;;;;;;5029924;28;20247;-53
2022/09/13 12:14:16;;;;;;;6.55;1.70;;;18.10;99.90;;;;;;5033748;28;20260;-53
2022/09/13 12:16:44;;;;;;;5.68;1.60;;;18.10;99.90;;;;;;5034222;28;20659;-52
2022/09/13 12:19:22;;;;;;;7.43;2.20;;;18.10;99.90;;;;;;5033751;28;20189;-52
2022/09/13 12:21:50;;;;;;;10.88;2.40;;;18.20;99.90;;;;;;5034297;28;20174;-52
2022/09/13 12:24:22;;;;;;;10.57;1.77;;;18.20;99.90;;;;;;5034081;28;20529;-52
2022/09/13 12:27:12;;;;;;;5.72;1.80;;;18.10;99.90;;;;;;5033455;28;20166;-52
2022/09/13 12:29:50;;;;;;;10.00;2.15;;;18.10;99.90;;;;;;5033437;28;20188;-52
2022/09/13 12:32:17;;;;;;;11.95;2.10;;;18.20;99.90;;;;;;5033278;28;20263;-52
2022/09/13 12:34:57;;;;;;;10.50;3.47;;;18.20;99.90;;;;;;5033700;28;20166;-52
2022/09/13 12:37:35;;;;;;;13.90;3.88;;;18.30;99.90;;;;;;5033319;28;20178;-52
2022/09/13 12:40:03;;;;;;;7.95;2.90;;;18.30;99.90;;;;;;5013667;28;20186;-52
2022/09/13 12:42:56;;;;;;;12.55;3.03;;;18.30;99.90;;;;;;5013654;28;20284;-52
2022/09/13 12:45:35;;;;;;;8.60;2.22;;;18.10;99.90;;;;;;5013529;28;20205;-52
2022/09/13 12:48:32;;;;;;;7.40;1.83;;;18.10;99.90;;;;;;5014118;28;20225;-52
2022/09/13 12:51:22;;;;;;;4.55;1.70;;;18.20;99.90;;;;;;5013699;28;20277;-52
2022/09/13 12:54:30;;;;;;;7.93;2.25;;;18.20;99.90;;;;;;5014288;28;20202;-53
2022/09/13 12:57:07;;;;;;;3.97;1.50;;;18.20;99.90;;;;;;5032748;28;20174;-52
2022/09/13 12:59:43;;;;;;;8.23;1.50;;;18.20;99.90;;;;;;5033564;28;20231;-52
2022/09/13 13:02:43;;;;;;;5.53;1.55;;;18.20;99.90;;;;;;5033419;28;20252;-52
2022/09/13 13:05:21;;;;;;;4.93;1.55;;;18.20;99.90;;;;;;5001025;28;20786;-52
2022/09/13 13:08:15;;;;;;;6.43;1.88;;;18.30;99.90;;;;;;5033331;28;20220;-53
2022/09/13 13:10:41;;;;;;;7.05;1.88;;;18.20;99.90;;;;;;5022447;28;20182;-53
2022/09/13 13:13:11;;;;;;;7.20;1.58;;;18.20;99.90;;;;;;5033268;28;20260;-53
2022/09/13 13:15:36;;;;;;;9.48;1.70;;;18.30;99.90;;;;;;5031160;28;20662;-53